PFSHPAUN

Guest
Details From PFSH - Shaktoolik New
To PAUN - Unalakleet
Flight Number -
Tags generated
Created
Modified
Stats Distance 31 nm / 57 km
Max Altitude 200 ft / 61 m
Waypoints 3
Social Downloads 0
Likes 0
Share VATSIM

Download

Looking for another format? Having issues loading an existing format? Contact us
Advertisement - Login to hide

Notes

Basic altitude profile: - Ascent Rate: 2500ft/min - Ascent Speed: 250kts - Cruise Altitude: 35000ft - Cruise Speed: 420kts - Descent Rate: 1500ft/min - Descent Speed: 250kts Options: - Use NATs: yes - Use PACOTS: yes - Use low airways: yes - Use high airways: yes

Route

PFSH JNR PAUN

ID Type Via Altitude Latitude Longitude Leg Dist Tot Dist Heading (true) Name
O PFSH APT - 0 ft / 0 m 64.36688˚ -161.21329˚ - 0 nm - Shaktoolik New
JNR NDB - 200 ft / 61 m 63.90772˚ -160.81192˚ 29 nm 29 nm 159° / 159° NORTH RIVER NDB
O PAUN APT - 0 ft / 0 m 63.88659˚ -160.79693˚ 1 nm 30 nm 163° / 163° Unalakleet

Altitude Profile

Advertisement - Login to hide

PFSH

Details ICAO PFSH (SKK)
Name Shaktoolik New
Region USA (Alaska)
Timezone America/Anchorage (UTC-9.0)
Stats Elevation 24 ft / 7 m (AMSL)
Location 64.366878° -161.213287°
Runways 2
Magnetic Variation 12.019° E

METAR

PFSH 170356Z AUTO 06005KT 10SM CLR M09/M11 A2926 RMK AO2 SLP907 T10941106 PWINO FZRANO $

Decode

TAF

Not found

Departure Runways

ID Width Length Bearing (true) Bearing (mag) Surface Threshold Offset Overrun Length
14 75 ft / 23 m 4,006 ft / 1,221 m 157.61° 145.59° Gravel 0 ft / 0 m 0 ft / 0 m
15 43 ft / 13 m 2,227 ft / 679 m 170.05° 158.03° Dirt 0 ft / 0 m 0 ft / 0 m
32 75 ft / 23 m 4,006 ft / 1,221 m 337.62° 325.60° Gravel 0 ft / 0 m 0 ft / 0 m
33 43 ft / 13 m 2,227 ft / 679 m 350.06° 338.04° Dirt 0 ft / 0 m 0 ft / 0 m

PAUN

Details ICAO PAUN (UNK)
Name Unalakleet
Region USA (Alaska)
Timezone America/Anchorage (UTC-9.0)
Stats Elevation 68 ft / 21 m (AMSL)
Location 63.886590° -160.796931°
Runways 2
Magnetic Variation 12.174° E

METAR

PAUN 170356Z AUTO 07009KT 10SM OVC048 M04/M05 A2925 RMK AO2 SLP908 T10391050 FZRANO

Decode

TAF

PAUN 162335Z 1700/1724 09012KT P6SM SCT025 BKN035 OVC050 FM171800 24006KT P6SM VCSH BKN025 OVC035

Decode

Destination Runways

ID Width Length Bearing (true) Bearing (mag) Surface Threshold Offset Overrun Length
15 151 ft / 46 m 5,990 ft / 1,826 m 164.15° 151.98° Asphalt 0 ft / 0 m 499 ft / 152 m
26 79 ft / 24 m 1,993 ft / 608 m 278.43° 266.26° Asphalt 0 ft / 0 m 0 ft / 0 m
33 151 ft / 46 m 5,990 ft / 1,826 m 344.16° 331.99° Asphalt 0 ft / 0 m 0 ft / 0 m
8 79 ft / 24 m 1,993 ft / 608 m 98.42° 86.25° Asphalt 0 ft / 0 m 0 ft / 0 m